Columbia Falls, Maine
Current Conditions -  °F | °C
As of 7:35 AM on Monday 24 Nov 2014 (Local Time) from KBHB Reporting Station
Overcast Overcast  
Wind Chill: 50°   Ceiling: 500
Heat Index: 50°   Visibility: 5mi
Dew Point: 48°   Wind: 9mph
Humidity: 94%   Direction: 150°SSE
Pressure: 30.02"   Gusts: NA
Location:  44.65°N, 67.73°W
Report Text: KBHB 241235Z AUTO 15008KT 5SM OVC005 10/09 A3002 RMK AO1
Loading
Personal Weather Stations






























Interactive Weather Map New forecast layout! Learn more

10-Day Weather Forecast

Advertisements
Track Severe Weather on mobile